sensor_id;sensor_type;location;lat;lon;timestamp;P1;durP1;ratioP1;P2;durP2;ratioP2
82990;SDS011;72806;50.832;4.864;2023-10-09T00:02:43;8.70;;;6.78;;
82990;SDS011;72806;50.832;4.864;2023-10-09T00:05:10;10.27;;;6.40;;
82990;SDS011;72806;50.832;4.864;2023-10-09T00:07:48;10.80;;;6.53;;
82990;SDS011;72806;50.832;4.864;2023-10-09T00:10:18;9.35;;;6.15;;
82990;SDS011;72806;50.832;4.864;2023-10-09T00:12:47;11.25;;;6.30;;
82990;SDS011;72806;50.832;4.864;2023-10-09T00:15:14;10.20;;;6.55;;
82990;SDS011;72806;50.832;4.864;2023-10-09T00:17:43;9.50;;;6.28;;
82990;SDS011;72806;50.832;4.864;2023-10-09T00:20:12;8.65;;;6.00;;
82990;SDS011;72806;50.832;4.864;2023-10-09T00:22:55;9.18;;;6.40;;
82990;SDS011;72806;50.832;4.864;2023-10-09T00:25:23;8.13;;;6.45;;
82990;SDS011;72806;50.832;4.864;2023-10-09T00:27:56;8.55;;;6.07;;
82990;SDS011;72806;50.832;4.864;2023-10-09T00:30:24;9.23;;;6.32;;
82990;SDS011;72806;50.832;4.864;2023-10-09T00:32:55;11.13;;;6.90;;
82990;SDS011;72806;50.832;4.864;2023-10-09T00:35:28;12.13;;;6.32;;
82990;SDS011;72806;50.832;4.864;2023-10-09T00:38:12;10.77;;;7.15;;
82990;SDS011;72806;50.832;4.864;2023-10-09T00:40:49;10.32;;;6.40;;
82990;SDS011;72806;50.832;4.864;2023-10-09T00:43:29;10.48;;;6.97;;
82990;SDS011;72806;50.832;4.864;2023-10-09T00:46:00;13.02;;;7.20;;
82990;SDS011;72806;50.832;4.864;2023-10-09T00:48:29;12.27;;;6.68;;
82990;SDS011;72806;50.832;4.864;2023-10-09T00:51:02;11.48;;;6.80;;
82990;SDS011;72806;50.832;4.864;2023-10-09T00:53:34;10.05;;;6.82;;
82990;SDS011;72806;50.832;4.864;2023-10-09T00:56:01;9.45;;;6.40;;
82990;SDS011;72806;50.832;4.864;2023-10-09T00:58:37;10.80;;;6.65;;
82990;SDS011;72806;50.832;4.864;2023-10-09T01:01:05;9.80;;;6.32;;
82990;SDS011;72806;50.832;4.864;2023-10-09T01:03:34;10.25;;;6.80;;
82990;SDS011;72806;50.832;4.864;2023-10-09T01:06:05;10.90;;;6.13;;
82990;SDS011;72806;50.832;4.864;2023-10-09T01:08:42;9.02;;;6.75;;
82990;SDS011;72806;50.832;4.864;2023-10-09T01:11:20;10.38;;;6.75;;
82990;SDS011;72806;50.832;4.864;2023-10-09T01:13:50;11.10;;;6.75;;
82990;SDS011;72806;50.832;4.864;2023-10-09T01:16:28;13.00;;;6.80;;
82990;SDS011;72806;50.832;4.864;2023-10-09T01:18:56;8.27;;;6.63;;
82990;SDS011;72806;50.832;4.864;2023-10-09T01:21:24;10.50;;;6.90;;
82990;SDS011;72806;50.832;4.864;2023-10-09T01:23:53;11.65;;;6.45;;
82990;SDS011;72806;50.832;4.864;2023-10-09T01:26:29;10.70;;;6.88;;
82990;SDS011;72806;50.832;4.864;2023-10-09T01:28:59;8.75;;;6.35;;
82990;SDS011;72806;50.832;4.864;2023-10-09T01:31:27;7.88;;;5.90;;
82990;SDS011;72806;50.832;4.864;2023-10-09T01:34:02;9.85;;;6.75;;
82990;SDS011;72806;50.832;4.864;2023-10-09T01:36:35;11.43;;;7.05;;
82990;SDS011;72806;50.832;4.864;2023-10-09T01:39:06;9.55;;;6.30;;
82990;SDS011;72806;50.832;4.864;2023-10-09T01:41:37;10.23;;;7.32;;
82990;SDS011;72806;50.832;4.864;2023-10-09T01:44:11;7.72;;;6.57;;
82990;SDS011;72806;50.832;4.864;2023-10-09T01:46:41;9.38;;;7.10;;
82990;SDS011;72806;50.832;4.864;2023-10-09T01:49:08;9.13;;;6.97;;
82990;SDS011;72806;50.832;4.864;2023-10-09T01:51:42;12.60;;;6.90;;
82990;SDS011;72806;50.832;4.864;2023-10-09T01:54:11;11.90;;;7.07;;
82990;SDS011;72806;50.832;4.864;2023-10-09T01:56:57;9.82;;;7.15;;
82990;SDS011;72806;50.832;4.864;2023-10-09T01:59:30;9.77;;;6.53;;
82990;SDS011;72806;50.832;4.864;2023-10-09T02:01:58;10.10;;;7.72;;
82990;SDS011;72806;50.832;4.864;2023-10-09T02:04:35;12.35;;;7.90;;
82990;SDS011;72806;50.832;4.864;2023-10-09T02:07:02;11.05;;;7.03;;
82990;SDS011;72806;50.832;4.864;2023-10-09T02:09:34;12.77;;;8.25;;
82990;SDS011;72806;50.832;4.864;2023-10-09T02:12:10;10.98;;;7.38;;
82990;SDS011;72806;50.832;4.864;2023-10-09T02:14:38;10.18;;;6.63;;
82990;SDS011;72806;50.832;4.864;2023-10-09T02:17:07;12.60;;;7.85;;
82990;SDS011;72806;50.832;4.864;2023-10-09T02:19:42;9.90;;;6.82;;
82990;SDS011;72806;50.832;4.864;2023-10-09T02:22:13;10.60;;;7.20;;
82990;SDS011;72806;50.832;4.864;2023-10-09T02:24:43;12.43;;;7.22;;
82990;SDS011;72806;50.832;4.864;2023-10-09T02:27:23;11.65;;;7.65;;
82990;SDS011;72806;50.832;4.864;2023-10-09T02:30:11;11.73;;;7.25;;
82990;SDS011;72806;50.832;4.864;2023-10-09T02:32:52;11.40;;;7.63;;
82990;SDS011;72806;50.832;4.864;2023-10-09T02:35:31;13.15;;;7.70;;
82990;SDS011;72806;50.832;4.864;2023-10-09T02:38:03;12.68;;;7.70;;
82990;SDS011;72806;50.832;4.864;2023-10-09T02:40:37;12.40;;;7.90;;
82990;SDS011;72806;50.832;4.864;2023-10-09T02:43:25;10.68;;;7.15;;
82990;SDS011;72806;50.832;4.864;2023-10-09T02:45:59;9.40;;;6.82;;
82990;SDS011;72806;50.832;4.864;2023-10-09T02:48:38;12.52;;;8.13;;
82990;SDS011;72806;50.832;4.864;2023-10-09T02:51:08;13.48;;;8.05;;
82990;SDS011;72806;50.832;4.864;2023-10-09T02:53:41;11.60;;;7.57;;
82990;SDS011;72806;50.832;4.864;2023-10-09T02:56:09;12.00;;;7.88;;
82990;SDS011;72806;50.832;4.864;2023-10-09T02:58:39;10.38;;;7.65;;
82990;SDS011;72806;50.832;4.864;2023-10-09T03:01:11;12.40;;;7.50;;
82990;SDS011;72806;50.832;4.864;2023-10-09T03:03:39;11.18;;;7.22;;
82990;SDS011;72806;50.832;4.864;2023-10-09T03:06:10;11.95;;;7.32;;
82990;SDS011;72806;50.832;4.864;2023-10-09T03:08:38;12.18;;;7.55;;
82990;SDS011;72806;50.832;4.864;2023-10-09T03:11:07;10.75;;;6.75;;
82990;SDS011;72806;50.832;4.864;2023-10-09T03:13:39;10.90;;;7.95;;
82990;SDS011;72806;50.832;4.864;2023-10-09T03:16:09;11.40;;;7.85;;
82990;SDS011;72806;50.832;4.864;2023-10-09T03:18:44;11.80;;;7.47;;
82990;SDS011;72806;50.832;4.864;2023-10-09T03:21:13;12.38;;;8.20;;
82990;SDS011;72806;50.832;4.864;2023-10-09T03:23:42;11.02;;;7.78;;
82990;SDS011;72806;50.832;4.864;2023-10-09T03:26:10;12.25;;;7.53;;
82990;SDS011;72806;50.832;4.864;2023-10-09T03:28:37;13.77;;;8.15;;
82990;SDS011;72806;50.832;4.864;2023-10-09T03:31:06;12.75;;;7.65;;
82990;SDS011;72806;50.832;4.864;2023-10-09T03:33:35;12.68;;;7.93;;
82990;SDS011;72806;50.832;4.864;2023-10-09T03:36:02;8.68;;;7.05;;
82990;SDS011;72806;50.832;4.864;2023-10-09T03:38:32;19.17;;;8.57;;
82990;SDS011;72806;50.832;4.864;2023-10-09T03:41:01;9.07;;;7.15;;
82990;SDS011;72806;50.832;4.864;2023-10-09T03:43:31;11.70;;;7.75;;
82990;SDS011;72806;50.832;4.864;2023-10-09T03:46:02;11.40;;;7.57;;
82990;SDS011;72806;50.832;4.864;2023-10-09T03:48:32;11.80;;;7.40;;
82990;SDS011;72806;50.832;4.864;2023-10-09T03:51:01;12.70;;;7.53;;
82990;SDS011;72806;50.832;4.864;2023-10-09T03:53:35;13.52;;;8.00;;
82990;SDS011;72806;50.832;4.864;2023-10-09T03:56:06;12.68;;;7.45;;
82990;SDS011;72806;50.832;4.864;2023-10-09T03:58:37;11.68;;;7.13;;
82990;SDS011;72806;50.832;4.864;2023-10-09T04:01:08;12.48;;;7.70;;
82990;SDS011;72806;50.832;4.864;2023-10-09T04:03:44;13.32;;;7.90;;
82990;SDS011;72806;50.832;4.864;2023-10-09T04:06:11;10.80;;;7.80;;
82990;SDS011;72806;50.832;4.864;2023-10-09T04:08:38;11.45;;;7.43;;
82990;SDS011;72806;50.832;4.864;2023-10-09T04:11:12;11.93;;;8.13;;
82990;SDS011;72806;50.832;4.864;2023-10-09T04:13:42;14.95;;;8.48;;
82990;SDS011;72806;50.832;4.864;2023-10-09T04:16:11;11.65;;;7.65;;
82990;SDS011;72806;50.832;4.864;2023-10-09T04:18:53;10.50;;;7.38;;
82990;SDS011;72806;50.832;4.864;2023-10-09T04:21:21;12.05;;;7.38;;
82990;SDS011;72806;50.832;4.864;2023-10-09T04:23:59;12.02;;;8.40;;
82990;SDS011;72806;50.832;4.864;2023-10-09T04:26:35;13.90;;;8.40;;
82990;SDS011;72806;50.832;4.864;2023-10-09T04:29:03;11.10;;;7.97;;
82990;SDS011;72806;50.832;4.864;2023-10-09T04:31:31;13.38;;;8.40;;
82990;SDS011;72806;50.832;4.864;2023-10-09T04:34:04;13.77;;;7.72;;
82990;SDS011;72806;50.832;4.864;2023-10-09T04:37:00;9.70;;;7.25;;
82990;SDS011;72806;50.832;4.864;2023-10-09T04:39:45;10.68;;;7.35;;
82990;SDS011;72806;50.832;4.864;2023-10-09T04:42:26;12.25;;;7.75;;
82990;SDS011;72806;50.832;4.864;2023-10-09T04:45:02;12.88;;;8.02;;
82990;SDS011;72806;50.832;4.864;2023-10-09T04:47:48;17.73;;;8.38;;
82990;SDS011;72806;50.832;4.864;2023-10-09T04:50:33;11.73;;;7.03;;
82990;SDS011;72806;50.832;4.864;2023-10-09T04:53:10;11.15;;;7.72;;
82990;SDS011;72806;50.832;4.864;2023-10-09T04:55:53;10.07;;;7.68;;
82990;SDS011;72806;50.832;4.864;2023-10-09T04:58:19;13.82;;;8.02;;
82990;SDS011;72806;50.832;4.864;2023-10-09T05:00:50;11.82;;;7.78;;
82990;SDS011;72806;50.832;4.864;2023-10-09T05:03:39;13.07;;;8.00;;
82990;SDS011;72806;50.832;4.864;2023-10-09T05:06:11;11.95;;;7.97;;
82990;SDS011;72806;50.832;4.864;2023-10-09T05:09:09;11.98;;;7.88;;
82990;SDS011;72806;50.832;4.864;2023-10-09T05:11:38;12.38;;;7.80;;
82990;SDS011;72806;50.832;4.864;2023-10-09T05:14:34;16.08;;;8.20;;
82990;SDS011;72806;50.832;4.864;2023-10-09T05:17:10;12.73;;;7.95;;
82990;SDS011;72806;50.832;4.864;2023-10-09T05:19:42;13.07;;;7.90;;
82990;SDS011;72806;50.832;4.864;2023-10-09T05:22:21;12.90;;;8.32;;
82990;SDS011;72806;50.832;4.864;2023-10-09T05:25:03;12.77;;;8.25;;
82990;SDS011;72806;50.832;4.864;2023-10-09T05:27:41;11.98;;;7.53;;
82990;SDS011;72806;50.832;4.864;2023-10-09T05:30:17;10.10;;;6.95;;
82990;SDS011;72806;50.832;4.864;2023-10-09T05:32:55;14.73;;;8.05;;
82990;SDS011;72806;50.832;4.864;2023-10-09T05:35:45;13.07;;;9.30;;
82990;SDS011;72806;50.832;4.864;2023-10-09T05:38:31;12.27;;;8.10;;
82990;SDS011;72806;50.832;4.864;2023-10-09T05:41:01;12.65;;;8.43;;
82990;SDS011;72806;50.832;4.864;2023-10-09T05:43:49;12.88;;;7.82;;
82990;SDS011;72806;50.832;4.864;2023-10-09T05:46:39;12.70;;;8.77;;
82990;SDS011;72806;50.832;4.864;2023-10-09T05:49:27;13.02;;;7.97;;
82990;SDS011;72806;50.832;4.864;2023-10-09T05:52:11;14.70;;;8.70;;
82990;SDS011;72806;50.832;4.864;2023-10-09T05:54:53;12.13;;;8.40;;
82990;SDS011;72806;50.832;4.864;2023-10-09T05:57:37;12.85;;;8.68;;
82990;SDS011;72806;50.832;4.864;2023-10-09T06:00:25;15.10;;;8.50;;
82990;SDS011;72806;50.832;4.864;2023-10-09T06:03:12;13.85;;;8.18;;
82990;SDS011;72806;50.832;4.864;2023-10-09T06:05:53;13.35;;;8.38;;
82990;SDS011;72806;50.832;4.864;2023-10-09T06:08:30;13.05;;;8.73;;
82990;SDS011;72806;50.832;4.864;2023-10-09T06:11:30;13.85;;;9.10;;
82990;SDS011;72806;50.832;4.864;2023-10-09T06:14:15;14.02;;;8.07;;
82990;SDS011;72806;50.832;4.864;2023-10-09T06:16:50;16.38;;;8.68;;
82990;SDS011;72806;50.832;4.864;2023-10-09T06:19:26;13.15;;;8.80;;
82990;SDS011;72806;50.832;4.864;2023-10-09T06:21:54;15.65;;;9.40;;
82990;SDS011;72806;50.832;4.864;2023-10-09T06:25:05;13.15;;;8.40;;
82990;SDS011;72806;50.832;4.864;2023-10-09T06:27:35;11.68;;;8.48;;
82990;SDS011;72806;50.832;4.864;2023-10-09T06:30:16;14.50;;;9.50;;
82990;SDS011;72806;50.832;4.864;2023-10-09T06:32:50;14.82;;;8.60;;
82990;SDS011;72806;50.832;4.864;2023-10-09T06:35:23;14.60;;;9.10;;
82990;SDS011;72806;50.832;4.864;2023-10-09T06:37:57;19.92;;;8.88;;
82990;SDS011;72806;50.832;4.864;2023-10-09T06:40:46;14.10;;;9.57;;
82990;SDS011;72806;50.832;4.864;2023-10-09T06:43:33;16.23;;;9.35;;
82990;SDS011;72806;50.832;4.864;2023-10-09T06:46:14;15.70;;;9.80;;
82990;SDS011;72806;50.832;4.864;2023-10-09T06:48:58;14.60;;;8.98;;
82990;SDS011;72806;50.832;4.864;2023-10-09T06:51:45;15.90;;;8.95;;
82990;SDS011;72806;50.832;4.864;2023-10-09T06:54:12;11.43;;;8.50;;
82990;SDS011;72806;50.832;4.864;2023-10-09T06:56:44;15.48;;;9.02;;
82990;SDS011;72806;50.832;4.864;2023-10-09T06:59:30;14.25;;;10.05;;
82990;SDS011;72806;50.832;4.864;2023-10-09T07:02:27;13.15;;;8.45;;
82990;SDS011;72806;50.832;4.864;2023-10-09T07:04:56;14.32;;;9.43;;
82990;SDS011;72806;50.832;4.864;2023-10-09T07:07:35;12.32;;;8.75;;
82990;SDS011;72806;50.832;4.864;2023-10-09T07:10:16;15.80;;;8.82;;
82990;SDS011;72806;50.832;4.864;2023-10-09T07:13:04;13.68;;;9.10;;
82990;SDS011;72806;50.832;4.864;2023-10-09T07:15:33;13.82;;;8.65;;
82990;SDS011;72806;50.832;4.864;2023-10-09T07:18:17;14.60;;;9.15;;
82990;SDS011;72806;50.832;4.864;2023-10-09T07:20:55;15.13;;;9.07;;
82990;SDS011;72806;50.832;4.864;2023-10-09T07:23:27;14.20;;;9.63;;
82990;SDS011;72806;50.832;4.864;2023-10-09T07:26:01;13.52;;;8.43;;
82990;SDS011;72806;50.832;4.864;2023-10-09T07:28:43;12.95;;;8.75;;
82990;SDS011;72806;50.832;4.864;2023-10-09T07:31:18;15.48;;;9.85;;
82990;SDS011;72806;50.832;4.864;2023-10-09T07:33:52;17.08;;;9.02;;
82990;SDS011;72806;50.832;4.864;2023-10-09T07:36:48;15.00;;;8.88;;
82990;SDS011;72806;50.832;4.864;2023-10-09T07:39:21;13.55;;;8.60;;
82990;SDS011;72806;50.832;4.864;2023-10-09T07:41:49;11.38;;;8.57;;
82990;SDS011;72806;50.832;4.864;2023-10-09T07:44:26;14.30;;;8.63;;
82990;SDS011;72806;50.832;4.864;2023-10-09T07:47:05;13.80;;;8.45;;
82990;SDS011;72806;50.832;4.864;2023-10-09T07:49:45;16.92;;;9.50;;
82990;SDS011;72806;50.832;4.864;2023-10-09T07:52:18;15.00;;;8.95;;
82990;SDS011;72806;50.832;4.864;2023-10-09T07:54:50;14.13;;;8.07;;
82990;SDS011;72806;50.832;4.864;2023-10-09T07:57:26;12.35;;;8.02;;
82990;SDS011;72806;50.832;4.864;2023-10-09T07:59:54;13.48;;;8.23;;
82990;SDS011;72806;50.832;4.864;2023-10-09T08:02:28;13.45;;;9.05;;
82990;SDS011;72806;50.832;4.864;2023-10-09T08:04:58;14.07;;;8.27;;
82990;SDS011;72806;50.832;4.864;2023-10-09T08:07:31;12.82;;;8.60;;
82990;SDS011;72806;50.832;4.864;2023-10-09T08:10:00;15.93;;;8.75;;
82990;SDS011;72806;50.832;4.864;2023-10-09T08:12:46;13.38;;;8.38;;
82990;SDS011;72806;50.832;4.864;2023-10-09T08:15:27;12.25;;;8.55;;
82990;SDS011;72806;50.832;4.864;2023-10-09T08:18:00;13.90;;;9.18;;
82990;SDS011;72806;50.832;4.864;2023-10-09T08:20:35;13.77;;;9.13;;
82990;SDS011;72806;50.832;4.864;2023-10-09T08:23:37;17.95;;;9.38;;
82990;SDS011;72806;50.832;4.864;2023-10-09T08:26:18;13.05;;;8.20;;
82990;SDS011;72806;50.832;4.864;2023-10-09T08:28:56;13.20;;;9.48;;
82990;SDS011;72806;50.832;4.864;2023-10-09T08:31:41;13.65;;;8.50;;
82990;SDS011;72806;50.832;4.864;2023-10-09T08:34:13;13.48;;;9.07;;
82990;SDS011;72806;50.832;4.864;2023-10-09T08:36:50;14.68;;;8.88;;
82990;SDS011;72806;50.832;4.864;2023-10-09T08:39:19;15.45;;;9.57;;
82990;SDS011;72806;50.832;4.864;2023-10-09T08:41:51;14.90;;;8.60;;
82990;SDS011;72806;50.832;4.864;2023-10-09T08:44:19;16.88;;;9.15;;
82990;SDS011;72806;50.832;4.864;2023-10-09T08:46:50;14.65;;;9.05;;
82990;SDS011;72806;50.832;4.864;2023-10-09T08:49:20;15.38;;;9.02;;
82990;SDS011;72806;50.832;4.864;2023-10-09T08:51:48;12.23;;;9.10;;
82990;SDS011;72806;50.832;4.864;2023-10-09T08:54:17;13.68;;;7.75;;
82990;SDS011;72806;50.832;4.864;2023-10-09T08:56:44;14.32;;;8.60;;
82990;SDS011;72806;50.832;4.864;2023-10-09T08:59:15;15.02;;;9.38;;
82990;SDS011;72806;50.832;4.864;2023-10-09T09:01:44;12.43;;;9.00;;
82990;SDS011;72806;50.832;4.864;2023-10-09T09:07:21;12.60;;;8.40;;
82990;SDS011;72806;50.832;4.864;2023-10-09T09:09:54;10.80;;;8.40;;
82990;SDS011;72806;50.832;4.864;2023-10-09T09:12:23;13.38;;;7.72;;
82990;SDS011;72806;50.832;4.864;2023-10-09T09:14:55;14.95;;;8.32;;
82990;SDS011;72806;50.832;4.864;2023-10-09T09:17:23;13.90;;;8.60;;
82990;SDS011;72806;50.832;4.864;2023-10-09T09:19:57;12.10;;;8.68;;
82990;SDS011;72806;50.832;4.864;2023-10-09T09:22:24;13.18;;;7.97;;
82990;SDS011;72806;50.832;4.864;2023-10-09T09:24:56;13.35;;;7.90;;
82990;SDS011;72806;50.832;4.864;2023-10-09T09:27:43;14.63;;;8.27;;
82990;SDS011;72806;50.832;4.864;2023-10-09T09:30:24;12.07;;;8.35;;
82990;SDS011;72806;50.832;4.864;2023-10-09T09:32:58;10.90;;;7.82;;
82990;SDS011;72806;50.832;4.864;2023-10-09T09:35:46;10.88;;;7.57;;
82990;SDS011;72806;50.832;4.864;2023-10-09T09:38:23;12.85;;;7.65;;
82990;SDS011;72806;50.832;4.864;2023-10-09T09:40:53;13.38;;;7.60;;
82990;SDS011;72806;50.832;4.864;2023-10-09T09:43:22;14.98;;;7.30;;
82990;SDS011;72806;50.832;4.864;2023-10-09T09:45:50;12.85;;;7.70;;
82990;SDS011;72806;50.832;4.864;2023-10-09T09:48:22;12.38;;;7.35;;
82990;SDS011;72806;50.832;4.864;2023-10-09T09:50:53;14.57;;;7.75;;
82990;SDS011;72806;50.832;4.864;2023-10-09T09:53:20;12.40;;;7.15;;
82990;SDS011;72806;50.832;4.864;2023-10-09T09:55:49;14.50;;;7.63;;
82990;SDS011;72806;50.832;4.864;2023-10-09T09:58:23;12.35;;;7.63;;
82990;SDS011;72806;50.832;4.864;2023-10-09T10:00:59;11.77;;;7.70;;
82990;SDS011;72806;50.832;4.864;2023-10-09T10:03:34;10.68;;;7.10;;
82990;SDS011;72806;50.832;4.864;2023-10-09T10:06:09;14.02;;;7.60;;
82990;SDS011;72806;50.832;4.864;2023-10-09T10:08:40;10.82;;;7.15;;
82990;SDS011;72806;50.832;4.864;2023-10-09T10:11:08;10.50;;;7.68;;
82990;SDS011;72806;50.832;4.864;2023-10-09T10:14:09;11.55;;;7.72;;
82990;SDS011;72806;50.832;4.864;2023-10-09T10:17:01;9.18;;;6.63;;
82990;SDS011;72806;50.832;4.864;2023-10-09T10:22:27;11.90;;;6.88;;
82990;SDS011;72806;50.832;4.864;2023-10-09T10:24:55;13.30;;;7.05;;
82990;SDS011;72806;50.832;4.864;2023-10-09T10:27:23;13.55;;;7.18;;
82990;SDS011;72806;50.832;4.864;2023-10-09T10:32:59;13.60;;;6.88;;
82990;SDS011;72806;50.832;4.864;2023-10-09T10:35:35;13.15;;;6.80;;
82990;SDS011;72806;50.832;4.864;2023-10-09T10:41:14;12.82;;;7.00;;
82990;SDS011;72806;50.832;4.864;2023-10-09T10:43:47;11.85;;;6.07;;
82990;SDS011;72806;50.832;4.864;2023-10-09T10:46:24;12.65;;;6.65;;
82990;SDS011;72806;50.832;4.864;2023-10-09T10:49:05;10.18;;;6.20;;
82990;SDS011;72806;50.832;4.864;2023-10-09T10:51:46;10.07;;;6.07;;
82990;SDS011;72806;50.832;4.864;2023-10-09T10:54:27;12.10;;;6.03;;
82990;SDS011;72806;50.832;4.864;2023-10-09T10:57:15;11.75;;;6.75;;
82990;SDS011;72806;50.832;4.864;2023-10-09T10:59:57;10.75;;;6.32;;
82990;SDS011;72806;50.832;4.864;2023-10-09T11:02:58;12.77;;;6.68;;
82990;SDS011;72806;50.832;4.864;2023-10-09T11:05:38;12.38;;;6.57;;
82990;SDS011;72806;50.832;4.864;2023-10-09T11:08:09;9.48;;;6.07;;
82990;SDS011;72806;50.832;4.864;2023-10-09T11:10:37;11.40;;;6.75;;
82990;SDS011;72806;50.832;4.864;2023-10-09T11:13:20;14.70;;;6.40;;
82990;SDS011;72806;50.832;4.864;2023-10-09T11:15:58;10.05;;;6.53;;
82990;SDS011;72806;50.832;4.864;2023-10-09T11:18:40;10.05;;;5.93;;
82990;SDS011;72806;50.832;4.864;2023-10-09T11:21:13;9.77;;;6.63;;
82990;SDS011;72806;50.832;4.864;2023-10-09T11:23:57;11.48;;;6.05;;
82990;SDS011;72806;50.832;4.864;2023-10-09T11:26:35;9.63;;;6.00;;
82990;SDS011;72806;50.832;4.864;2023-10-09T11:29:06;12.68;;;6.05;;
82990;SDS011;72806;50.832;4.864;2023-10-09T11:31:41;11.45;;;6.05;;
82990;SDS011;72806;50.832;4.864;2023-10-09T11:34:23;10.07;;;5.70;;
82990;SDS011;72806;50.832;4.864;2023-10-09T11:36:57;10.25;;;5.65;;
82990;SDS011;72806;50.832;4.864;2023-10-09T11:39:26;11.40;;;6.03;;
82990;SDS011;72806;50.832;4.864;2023-10-09T11:42:05;8.90;;;5.72;;
82990;SDS011;72806;50.832;4.864;2023-10-09T11:44:37;11.13;;;5.88;;
82990;SDS011;72806;50.832;4.864;2023-10-09T11:47:05;10.07;;;6.18;;
82990;SDS011;72806;50.832;4.864;2023-10-09T11:49:49;8.45;;;5.00;;
82990;SDS011;72806;50.832;4.864;2023-10-09T11:52:41;9.52;;;5.40;;
82990;SDS011;72806;50.832;4.864;2023-10-09T11:55:34;12.38;;;6.20;;
82990;SDS011;72806;50.832;4.864;2023-10-09T11:58:03;13.43;;;6.28;;
82990;SDS011;72806;50.832;4.864;2023-10-09T12:00:32;10.05;;;5.68;;
82990;SDS011;72806;50.832;4.864;2023-10-09T12:03:09;12.82;;;6.18;;
82990;SDS011;72806;50.832;4.864;2023-10-09T12:05:39;7.90;;;5.55;;
82990;SDS011;72806;50.832;4.864;2023-10-09T12:08:10;11.07;;;5.75;;
82990;SDS011;72806;50.832;4.864;2023-10-09T12:10:40;9.63;;;5.75;;
82990;SDS011;72806;50.832;4.864;2023-10-09T12:13:09;11.60;;;5.55;;
82990;SDS011;72806;50.832;4.864;2023-10-09T12:15:36;10.52;;;5.78;;
82990;SDS011;72806;50.832;4.864;2023-10-09T12:18:03;9.35;;;5.53;;
82990;SDS011;72806;50.832;4.864;2023-10-09T12:20:32;7.70;;;5.18;;
82990;SDS011;72806;50.832;4.864;2023-10-09T12:23:00;8.75;;;5.55;;
82990;SDS011;72806;50.832;4.864;2023-10-09T12:25:29;8.18;;;5.40;;
82990;SDS011;72806;50.832;4.864;2023-10-09T12:27:57;8.80;;;5.05;;
82990;SDS011;72806;50.832;4.864;2023-10-09T12:30:29;7.45;;;4.78;;
82990;SDS011;72806;50.832;4.864;2023-10-09T12:32:56;8.32;;;4.95;;
82990;SDS011;72806;50.832;4.864;2023-10-09T12:35:24;8.40;;;4.47;;
82990;SDS011;72806;50.832;4.864;2023-10-09T12:37:51;10.00;;;4.80;;
82990;SDS011;72806;50.832;4.864;2023-10-09T12:40:19;8.82;;;4.72;;
82990;SDS011;72806;50.832;4.864;2023-10-09T12:42:51;7.13;;;4.40;;
82990;SDS011;72806;50.832;4.864;2023-10-09T12:45:19;7.07;;;4.85;;
82990;SDS011;72806;50.832;4.864;2023-10-09T12:47:52;10.05;;;5.00;;
82990;SDS011;72806;50.832;4.864;2023-10-09T12:50:24;7.80;;;4.63;;
82990;SDS011;72806;50.832;4.864;2023-10-09T12:52:56;8.65;;;5.20;;
82990;SDS011;72806;50.832;4.864;2023-10-09T12:55:27;8.70;;;4.65;;
82990;SDS011;72806;50.832;4.864;2023-10-09T12:57:59;10.40;;;5.30;;
82990;SDS011;72806;50.832;4.864;2023-10-09T13:00:29;7.57;;;5.00;;
82990;SDS011;72806;50.832;4.864;2023-10-09T13:02:59;7.13;;;4.85;;
82990;SDS011;72806;50.832;4.864;2023-10-09T13:05:28;8.57;;;4.88;;
82990;SDS011;72806;50.832;4.864;2023-10-09T13:07:55;8.70;;;4.80;;
82990;SDS011;72806;50.832;4.864;2023-10-09T13:10:23;8.98;;;4.95;;
82990;SDS011;72806;50.832;4.864;2023-10-09T13:12:50;9.60;;;4.53;;
82990;SDS011;72806;50.832;4.864;2023-10-09T13:15:21;8.15;;;4.85;;
82990;SDS011;72806;50.832;4.864;2023-10-09T13:17:48;10.73;;;5.38;;
82990;SDS011;72806;50.832;4.864;2023-10-09T13:20:19;10.60;;;5.53;;
82990;SDS011;72806;50.832;4.864;2023-10-09T13:22:46;8.52;;;5.07;;
82990;SDS011;72806;50.832;4.864;2023-10-09T13:25:14;9.65;;;5.28;;
82990;SDS011;72806;50.832;4.864;2023-10-09T13:27:42;8.13;;;4.60;;
82990;SDS011;72806;50.832;4.864;2023-10-09T13:30:16;7.10;;;4.90;;
82990;SDS011;72806;50.832;4.864;2023-10-09T13:32:48;9.57;;;5.72;;
82990;SDS011;72806;50.832;4.864;2023-10-09T13:35:16;12.32;;;5.95;;
82990;SDS011;72806;50.832;4.864;2023-10-09T13:37:45;8.88;;;5.70;;
82990;SDS011;72806;50.832;4.864;2023-10-09T13:40:19;8.85;;;5.05;;
82990;SDS011;72806;50.832;4.864;2023-10-09T13:42:53;10.05;;;5.20;;
82990;SDS011;72806;50.832;4.864;2023-10-09T13:45:24;8.10;;;5.28;;
82990;SDS011;72806;50.832;4.864;2023-10-09T13:47:53;9.63;;;5.10;;
82990;SDS011;72806;50.832;4.864;2023-10-09T13:50:23;6.88;;;5.35;;
82990;SDS011;72806;50.832;4.864;2023-10-09T13:52:56;10.82;;;5.60;;
82990;SDS011;72806;50.832;4.864;2023-10-09T13:55:22;9.45;;;5.38;;
82990;SDS011;72806;50.832;4.864;2023-10-09T13:57:56;13.57;;;5.45;;
82990;SDS011;72806;50.832;4.864;2023-10-09T14:00:24;9.23;;;5.93;;
82990;SDS011;72806;50.832;4.864;2023-10-09T14:02:58;13.23;;;5.95;;
82990;SDS011;72806;50.832;4.864;2023-10-09T14:05:35;10.35;;;6.03;;
82990;SDS011;72806;50.832;4.864;2023-10-09T14:08:18;9.00;;;5.93;;
82990;SDS011;72806;50.832;4.864;2023-10-09T14:10:48;9.27;;;5.82;;
82990;SDS011;72806;50.832;4.864;2023-10-09T14:13:15;9.38;;;5.47;;
82990;SDS011;72806;50.832;4.864;2023-10-09T14:15:51;9.48;;;5.75;;
82990;SDS011;72806;50.832;4.864;2023-10-09T14:18:19;14.80;;;6.20;;
82990;SDS011;72806;50.832;4.864;2023-10-09T14:20:47;13.98;;;6.55;;
82990;SDS011;72806;50.832;4.864;2023-10-09T14:23:15;13.80;;;6.88;;
82990;SDS011;72806;50.832;4.864;2023-10-09T14:25:47;12.90;;;6.88;;
82990;SDS011;72806;50.832;4.864;2023-10-09T14:28:15;10.73;;;6.45;;
82990;SDS011;72806;50.832;4.864;2023-10-09T14:30:44;11.23;;;6.38;;
82990;SDS011;72806;50.832;4.864;2023-10-09T14:33:15;12.73;;;6.57;;
82990;SDS011;72806;50.832;4.864;2023-10-09T14:35:47;16.58;;;6.80;;
82990;SDS011;72806;50.832;4.864;2023-10-09T14:38:15;14.02;;;6.70;;
82990;SDS011;72806;50.832;4.864;2023-10-09T14:40:44;11.68;;;6.35;;
82990;SDS011;72806;50.832;4.864;2023-10-09T14:43:13;11.45;;;6.53;;
82990;SDS011;72806;50.832;4.864;2023-10-09T14:45:45;11.88;;;6.07;;
82990;SDS011;72806;50.832;4.864;2023-10-09T14:48:14;14.32;;;6.90;;
82990;SDS011;72806;50.832;4.864;2023-10-09T14:50:46;11.27;;;6.20;;
82990;SDS011;72806;50.832;4.864;2023-10-09T14:53:14;13.07;;;6.63;;
82990;SDS011;72806;50.832;4.864;2023-10-09T14:55:42;9.15;;;5.80;;
82990;SDS011;72806;50.832;4.864;2023-10-09T14:58:14;10.05;;;6.40;;
82990;SDS011;72806;50.832;4.864;2023-10-09T15:00:42;10.23;;;6.10;;
82990;SDS011;72806;50.832;4.864;2023-10-09T15:03:12;9.52;;;5.35;;
82990;SDS011;72806;50.832;4.864;2023-10-09T15:05:40;9.23;;;6.20;;
82990;SDS011;72806;50.832;4.864;2023-10-09T15:08:08;10.18;;;5.30;;
82990;SDS011;72806;50.832;4.864;2023-10-09T15:10:43;15.27;;;5.78;;
82990;SDS011;72806;50.832;4.864;2023-10-09T15:13:13;12.30;;;5.57;;
82990;SDS011;72806;50.832;4.864;2023-10-09T15:15:41;10.15;;;6.22;;
82990;SDS011;72806;50.832;4.864;2023-10-09T15:18:09;12.43;;;5.82;;
82990;SDS011;72806;50.832;4.864;2023-10-09T15:20:38;13.48;;;6.10;;
82990;SDS011;72806;50.832;4.864;2023-10-09T15:23:06;10.20;;;6.57;;
82990;SDS011;72806;50.832;4.864;2023-10-09T15:25:34;12.63;;;5.88;;
82990;SDS011;72806;50.832;4.864;2023-10-09T15:28:04;10.75;;;6.35;;
82990;SDS011;72806;50.832;4.864;2023-10-09T15:30:33;12.65;;;6.00;;
82990;SDS011;72806;50.832;4.864;2023-10-09T15:33:03;11.82;;;6.03;;